Terminal Aerodrome Forecast
Issued by NWS Shreveport, LA

Home | Current Version | Previous Version | Text Only | Print | Product List | Glossary On
Versions: 1 2 3 4 5 6 7 8 9 10 11 12 13 14 15 16 17 18 19 20
000
FTUS44 KSHV 280522
TAFGGG
TAF
KGGG 280522Z 2806/2906 07013G20KT P6SM -SHRA VCTS OVC040CB
      TEMPO 2806/2808 2SM TSRA BR OVC015CB
     FM281000 05010G15KT 3SM BR BKN004 OVC010
     FM281500 04010G15KT 5SM BR BKN008 OVC015
     FM281800 01013G20KT P6SM VCTS BKN025CB OVC035
     FM290000 36009KT P6SM BKN015 OVC025=

USA.gov is the U.S. government's official web portal to all federal, state and local government web resources and services.